createdAt,value
2019-02-07T00:00:26.276Z,28.4
2019-02-07T00:01:19.489Z,28.2
2019-02-07T00:02:07.513Z,28.1
2019-02-07T00:02:57.600Z,27.9
2019-02-07T00:04:37.515Z,27.7
2019-02-07T00:05:27.823Z,27.4
2019-02-07T00:06:16.948Z,28.4
2019-02-07T00:07:09.475Z,29.2
2019-02-07T00:07:58.299Z,29.8
2019-02-07T00:08:47.520Z,30.3
2019-02-07T00:09:37.737Z,30.6
2019-02-07T00:10:27.646Z,31
2019-02-07T00:11:17.852Z,31.3
2019-02-07T00:12:08.040Z,31.6
2019-02-07T00:12:57.918Z,31.9
2019-02-07T00:13:47.735Z,32.1
2019-02-07T00:14:47.242Z,32.3
2019-02-07T00:15:27.582Z,32.6
2019-02-07T00:16:20.523Z,32.7
2019-02-07T00:17:08.272Z,32.8
2019-02-07T00:17:57.797Z,31.9
2019-02-07T00:18:47.892Z,31.8
2019-02-07T00:19:39.262Z,31.8
2019-02-07T00:20:27.765Z,31.5
2019-02-07T00:21:19.139Z,31.1
2019-02-07T00:22:07.799Z,30.5
2019-02-07T00:22:59.250Z,29.9
2019-02-07T00:23:49.004Z,29.5
2019-02-07T00:24:50.539Z,29.2
2019-02-07T00:25:31.018Z,28.9
2019-02-07T00:26:18.406Z,28.8
2019-02-07T00:27:09.343Z,28.6
2019-02-07T00:27:58.845Z,28.3
2019-02-07T00:28:50.006Z,28.1
2019-02-07T00:29:39.689Z,27.9
2019-02-07T00:31:19.453Z,27.8
2019-02-07T00:32:09.598Z,27.4
2019-02-07T00:32:58.305Z,27.9
2019-02-07T00:33:49.738Z,28.8
2019-02-07T00:34:42.168Z,29.4
2019-02-07T00:35:29.011Z,29.9
2019-02-07T00:36:19.077Z,30.3
2019-02-07T00:37:09.673Z,30.6
2019-02-07T00:38:00.175Z,31
2019-02-07T00:38:49.205Z,31.3
2019-02-07T00:39:39.578Z,31.5
2019-02-07T00:40:29.351Z,31.8
2019-02-07T00:41:20.252Z,32
2019-02-07T00:42:09.545Z,32.2
2019-02-07T00:43:00.370Z,32.4
2019-02-07T00:43:52.110Z,32.6
2019-02-07T00:44:53.252Z,32.8
2019-02-07T00:45:29.953Z,31.8
2019-02-07T00:46:19.319Z,31.8
2019-02-07T00:47:12.372Z,31.7
2019-02-07T00:48:00.180Z,31.4
2019-02-07T00:48:50.579Z,31
2019-02-07T00:49:40.250Z,30.4
2019-02-07T00:50:33.560Z,29.9
2019-02-07T00:51:21.325Z,29.4
2019-02-07T00:52:10.834Z,29.2
2019-02-07T00:53:02.917Z,28.9
2019-02-07T00:53:51.207Z,28.8
2019-02-07T00:54:41.284Z,28.6
2019-02-07T00:55:30.420Z,28.4
2019-02-07T00:56:22.634Z,28.2
2019-02-07T00:57:11.772Z,27.9
2019-02-07T00:58:50.726Z,27.7
2019-02-07T00:59:40.976Z,27.4
2019-02-07T01:00:31.449Z,27.9
2019-02-07T01:01:22.008Z,28.8
2019-02-07T01:02:13.204Z,29.4
2019-02-07T01:03:01.786Z,29.8
2019-02-07T01:03:50.978Z,30.2
2019-02-07T01:04:41.717Z,30.6
2019-02-07T01:05:33.772Z,30.9
2019-02-07T01:06:21.421Z,30.8
2019-02-07T01:07:11.345Z,29.9
2019-02-07T01:08:00.765Z,28.6
2019-02-07T01:08:51.996Z,27.6
2019-02-07T01:09:41.193Z,26.8
2019-02-07T01:10:31.440Z,25.8
2019-02-07T01:11:22.970Z,24.6
2019-02-07T01:12:11.608Z,23.7
2019-02-07T01:13:02.750Z,23.9
2019-02-07T01:13:51.592Z,24.5
2019-02-07T01:14:44.731Z,25.9
2019-02-07T01:15:32.403Z,27.1
2019-02-07T01:16:22.250Z,28.1
2019-02-07T01:17:11.842Z,28.9
2019-02-07T01:18:02.563Z,29.6
2019-02-07T01:18:52.640Z,30.1
2019-02-07T01:19:42.176Z,30.6
2019-02-07T01:20:34.160Z,30.9
2019-02-07T01:21:22.105Z,31.3
2019-02-07T01:22:12.550Z,31.6
2019-02-07T01:23:02.780Z,31.9
2019-02-07T01:23:53.087Z,32.3
2019-02-07T01:24:42.242Z,32.5
2019-02-07T01:25:32.140Z,32.7
2019-02-07T01:26:23.202Z,32.9
2019-02-07T01:27:12.958Z,32.8
2019-02-07T01:28:03.025Z,32.1
2019-02-07T01:28:52.517Z,32
2019-02-07T01:29:45.627Z,31.9
2019-02-07T01:30:33.493Z,31.5
2019-02-07T01:31:22.967Z,31
2019-02-07T01:32:13.051Z,30.4
2019-02-07T01:33:02.839Z,29.8
2019-02-07T01:33:53.447Z,29.4
2019-02-07T01:34:42.424Z,29.1
2019-02-07T01:35:33.691Z,28.9
2019-02-07T01:36:23.324Z,28.7
2019-02-07T01:37:12.839Z,28.6
2019-02-07T01:38:03.520Z,28.4
2019-02-07T01:38:56.416Z,28.1
2019-02-07T01:39:44.431Z,27.9
2019-02-07T01:41:23.697Z,27.6
2019-02-07T01:42:12.951Z,27.4
2019-02-07T01:43:04.308Z,28.4
2019-02-07T01:43:53.403Z,29.3
2019-02-07T01:44:46.309Z,29.8
2019-02-07T01:45:34.238Z,30.3
2019-02-07T01:46:25.072Z,30.6
2019-02-07T01:47:14.149Z,30.9
2019-02-07T01:48:07.846Z,31.3
2019-02-07T01:48:53.134Z,31.6
2019-02-07T01:49:44.212Z,31.8
2019-02-07T01:50:34.010Z,32
2019-02-07T01:51:23.833Z,32.3
2019-02-07T01:52:15.368Z,32.4
2019-02-07T01:53:04.445Z,32.6
2019-02-07T01:53:56.764Z,32.8
2019-02-07T01:54:45.105Z,32.6
2019-02-07T01:55:35.190Z,31.9
2019-02-07T01:56:25.341Z,31.9
2019-02-07T01:57:17.875Z,31.8
2019-02-07T01:58:04.973Z,31.3
2019-02-07T01:58:55.219Z,30.9
2019-02-07T01:59:44.538Z,30.3
2019-02-07T02:00:35.846Z,29.8
2019-02-07T02:01:25.028Z,29.4
2019-02-07T02:02:15.630Z,29.2
2019-02-07T02:03:07.690Z,29.1
2019-02-07T02:03:56.063Z,28.9
2019-02-07T02:04:45.833Z,28.7
2019-02-07T02:05:36.467Z,28.4
2019-02-07T02:06:27.457Z,28.1
2019-02-07T02:07:15.747Z,27.9
2019-02-07T02:08:06.177Z,27.9
2019-02-07T02:08:56.513Z,27.6
2019-02-07T02:09:46.199Z,27.8
2019-02-07T02:10:35.387Z,28.6
2019-02-07T02:11:24.969Z,29.3
2019-02-07T02:12:18.429Z,29.8
2019-02-07T02:13:07.031Z,30.3
2019-02-07T02:13:55.899Z,30.7
2019-02-07T02:14:45.297Z,31
2019-02-07T02:15:37.759Z,31.3
2019-02-07T02:16:29.042Z,31.6
2019-02-07T02:17:16.154Z,31.8
2019-02-07T02:18:07.034Z,32
2019-02-07T02:18:56.261Z,32.3
2019-02-07T02:19:46.609Z,32.4
2019-02-07T02:20:36.646Z,32.7
2019-02-07T02:21:29.251Z,32.8
2019-02-07T02:22:17.293Z,32.3
2019-02-07T02:23:06.885Z,31.9
2019-02-07T02:23:56.931Z,31.8
2019-02-07T02:24:52.568Z,31.6
2019-02-07T02:25:37.926Z,31.2
2019-02-07T02:26:27.377Z,30.7
2019-02-07T02:27:17.970Z,30.2
2019-02-07T02:28:07.770Z,29.8
2019-02-07T02:28:58.088Z,29.5
2019-02-07T02:29:48.120Z,29.4
2019-02-07T02:30:40.626Z,29.2
2019-02-07T02:31:26.898Z,29.1
2019-02-07T02:32:17.553Z,28.7
2019-02-07T02:33:08.062Z,28.4
2019-02-07T02:33:58.245Z,28.2
2019-02-07T02:34:47.959Z,28
2019-02-07T02:35:37.857Z,27.9
2019-02-07T02:36:27.820Z,27.5
2019-02-07T02:37:17.835Z,28.1
2019-02-07T02:38:07.075Z,28.9
2019-02-07T02:38:58.172Z,29.5
2019-02-07T02:39:50.757Z,30
2019-02-07T02:40:38.359Z,30.4
2019-02-07T02:41:28.703Z,30.8
2019-02-07T02:42:18.211Z,31.1
2019-02-07T02:43:07.756Z,31.3
2019-02-07T02:43:58.317Z,31.6
2019-02-07T02:44:49.200Z,31.8
2019-02-07T02:45:45.723Z,32.1
2019-02-07T02:46:27.732Z,32.3
2019-02-07T02:47:17.739Z,32.4
2019-02-07T02:48:09.210Z,32.6
2019-02-07T02:49:00.633Z,32.8
2019-02-07T02:49:48.984Z,32.2
2019-02-07T02:50:38.288Z,31.8
2019-02-07T02:51:28.844Z,31.8
2019-02-07T02:52:18.945Z,31.6
2019-02-07T02:53:08.432Z,31.1
2019-02-07T02:53:59.554Z,30.6
2019-02-07T02:54:51.567Z,30.2
2019-02-07T02:55:39.772Z,29.8
2019-02-07T02:56:29.201Z,29.6
2019-02-07T02:57:19.634Z,29.4
2019-02-07T02:58:12.181Z,29.3
2019-02-07T02:58:58.364Z,29.2
2019-02-07T02:59:49.184Z,28.9
2019-02-07T03:00:39.323Z,28.6
2019-02-07T03:01:29.551Z,28.3
2019-02-07T03:02:18.771Z,28.1
2019-02-07T03:03:09.983Z,27.9
2019-02-07T03:04:00.459Z,27.6
2019-02-07T03:04:50.528Z,28
2019-02-07T03:08:22.072Z,30.4
2019-02-07T03:09:12.108Z,30.8
2019-02-07T03:10:02.086Z,31.1
2019-02-07T03:10:53.406Z,31.3
2019-02-07T03:11:42.157Z,31.6
2019-02-07T03:12:32.206Z,31.9
2019-02-07T03:13:21.846Z,31.5
2019-02-07T03:14:15.091Z,30.5
2019-02-07T03:15:02.610Z,28.9
2019-02-07T03:15:57.179Z,27.9
2019-02-07T03:16:42.225Z,26.9
2019-02-07T03:17:33.237Z,25.8
2019-02-07T03:18:22.047Z,24.6
2019-02-07T03:19:12.706Z,24.8
2019-02-07T03:20:05.570Z,25.1
2019-02-07T03:20:52.477Z,26.5
2019-02-07T03:21:42.507Z,27.6
2019-02-07T03:22:32.594Z,28.5
2019-02-07T03:23:24.830Z,29.3
2019-02-07T03:24:13.592Z,29.9
2019-02-07T03:25:03.656Z,30.4
2019-02-07T03:25:52.857Z,30.8
2019-02-07T03:26:43.456Z,31.1
2019-02-07T03:27:33.209Z,31.5
2019-02-07T03:28:23.627Z,31.8
2019-02-07T03:29:16.134Z,32.1
2019-02-07T03:30:04.232Z,32.3
2019-02-07T03:30:54.011Z,32.6
2019-02-07T03:31:43.992Z,32.8
2019-02-07T03:32:35.714Z,32.9
2019-02-07T03:33:23.436Z,32.1
2019-02-07T03:34:12.504Z,31.9
2019-02-07T03:35:04.561Z,31.9
2019-02-07T03:35:54.292Z,31.6
2019-02-07T03:36:43.466Z,31.1
2019-02-07T03:37:34.394Z,30.6
2019-02-07T03:38:26.856Z,29.9
2019-02-07T03:39:14.271Z,29.6
2019-02-07T03:40:03.881Z,29.3
2019-02-07T03:40:54.111Z,29.1
2019-02-07T03:41:43.791Z,28.9
2019-02-07T03:42:33.438Z,28.7
2019-02-07T03:43:24.590Z,28.4
2019-02-07T03:44:14.644Z,28.1
2019-02-07T03:45:03.829Z,28
2019-02-07T03:46:08.258Z,27.9
2019-02-07T03:46:43.530Z,27.4
2019-02-07T03:47:37.400Z,27.9
2019-02-07T03:48:24.431Z,28.9
2019-02-07T03:49:13.952Z,29.5
2019-02-07T03:50:04.126Z,30
2019-02-07T03:50:55.533Z,30.4
2019-02-07T03:51:45.107Z,30.8
2019-02-07T03:52:34.359Z,31.1
2019-02-07T03:53:25.633Z,31.4
2019-02-07T03:54:15.024Z,31.7
2019-02-07T03:55:05.688Z,31.9
2019-02-07T03:55:55.543Z,32.1
2019-02-07T03:56:48.285Z,32.3
2019-02-07T03:57:34.526Z,32.5
2019-02-07T03:58:25.865Z,32.7
2019-02-07T03:59:15.366Z,32.9
2019-02-07T04:00:06.508Z,32.3
2019-02-07T04:00:55.753Z,31.9
2019-02-07T04:01:46.177Z,31.9
2019-02-07T04:02:36.430Z,31.6
2019-02-07T04:03:26.545Z,31.1
2019-02-07T04:04:15.972Z,30.6
2019-02-07T04:05:06.419Z,30.1
2019-02-07T04:05:58.758Z,29.8
2019-02-07T04:06:45.290Z,29.6
2019-02-07T04:07:36.351Z,29.4
2019-02-07T04:08:25.795Z,29.3
2019-02-07T04:09:16.844Z,29.1
2019-02-07T04:10:05.889Z,28.7
2019-02-07T04:10:55.647Z,28.4
2019-02-07T04:11:46.994Z,28.2
2019-02-07T04:12:36.846Z,28
2019-02-07T04:14:16.241Z,27.7
2019-02-07T04:15:08.622Z,28.6
2019-02-07T04:15:56.495Z,29.4
2019-02-07T04:16:46.997Z,29.8
2019-02-07T04:17:36.989Z,30.3
2019-02-07T04:18:27.874Z,30.6
2019-02-07T04:19:17.332Z,31
2019-02-07T04:20:07.834Z,31.3
2019-02-07T04:20:57.521Z,31.6
2019-02-07T04:21:47.503Z,31.8
2019-02-07T04:22:36.801Z,32.1
2019-02-07T04:23:27.365Z,32.3
2019-02-07T04:24:23.256Z,32.4
2019-02-07T04:25:25.021Z,32.7
2019-02-07T04:25:56.977Z,32.8
2019-02-07T04:26:47.554Z,32.2
2019-02-07T04:27:38.338Z,31.8
2019-02-07T04:28:27.530Z,31.8
2019-02-07T04:29:18.116Z,31.6
2019-02-07T04:30:08.451Z,31.1
2019-02-07T04:30:58.298Z,30.6
2019-02-07T04:31:48.237Z,30.2
2019-02-07T04:32:37.859Z,29.9
2019-02-07T04:33:30.531Z,29.6
2019-02-07T04:34:17.558Z,29.4
2019-02-07T04:35:08.816Z,29.3
2019-02-07T04:35:58.055Z,29.2
2019-02-07T04:36:48.504Z,28.9
2019-02-07T04:37:38.443Z,28.5
2019-02-07T04:38:28.414Z,28.3
2019-02-07T04:39:17.493Z,28.1
2019-02-07T04:40:13.001Z,27.9
2019-02-07T04:40:58.599Z,27.7
2019-02-07T04:41:48.650Z,28.4
2019-02-07T04:42:41.623Z,29.3
2019-02-07T04:43:28.540Z,29.8
2019-02-07T04:44:18.922Z,30.2
2019-02-07T04:45:09.060Z,30.6
2019-02-07T04:46:00.672Z,30.9
2019-02-07T04:46:49.012Z,31.3
2019-02-07T04:47:38.204Z,31.5
2019-02-07T04:48:29.433Z,31.8
2019-02-07T04:49:19.216Z,32
2019-02-07T04:50:08.997Z,32.2
2019-02-07T04:50:59.149Z,32.4
2019-02-07T04:51:51.834Z,32.6
2019-02-07T04:52:39.135Z,32.8
2019-02-07T04:53:29.455Z,32.6
2019-02-07T04:54:18.666Z,31.9
2019-02-07T04:55:11.534Z,31.9
2019-02-07T04:55:59.876Z,31.8
2019-02-07T04:56:49.975Z,31.4
2019-02-07T04:57:39.544Z,30.9
2019-02-07T04:58:29.764Z,30.4
2019-02-07T04:59:19.379Z,30
2019-02-07T05:00:13.118Z,29.8
2019-02-07T05:01:02.427Z,29.5
2019-02-07T05:01:50.295Z,29.4
2019-02-07T05:02:40.103Z,29.3
2019-02-07T05:03:30.493Z,29.1
2019-02-07T05:04:20.666Z,28.7
2019-02-07T05:05:09.811Z,28.4
2019-02-07T05:06:00.626Z,28.2
2019-02-07T05:06:50.528Z,28
2019-02-07T05:07:40.184Z,27.6
2019-02-07T05:08:30.900Z,28.1
2019-02-07T05:09:19.708Z,28.9
2019-02-07T05:10:13.468Z,29.5
2019-02-07T05:10:59.261Z,30
2019-02-07T05:11:49.673Z,30.4
2019-02-07T05:12:40.230Z,30.8
2019-02-07T05:13:30.540Z,31.1
2019-02-07T05:14:20.455Z,31.4
2019-02-07T05:15:10.658Z,31.6
2019-02-07T05:16:02.035Z,31.9
2019-02-07T05:16:51.564Z,32.1
2019-02-07T05:17:41.450Z,32.3
2019-02-07T05:18:31.267Z,32.5
2019-02-07T05:19:23.580Z,32.8
2019-02-07T05:20:11.046Z,32.4
2019-02-07T05:20:59.968Z,31.4
2019-02-07T05:21:51.155Z,29.8
2019-02-07T05:22:40.927Z,28.6
2019-02-07T05:23:30.977Z,27.6
2019-02-07T05:24:21.024Z,26.3
2019-02-07T05:25:13.290Z,25.3
2019-02-07T05:26:02.267Z,25.5
2019-02-07T05:26:51.867Z,26
2019-02-07T05:27:42.972Z,27.3
2019-02-07T05:28:33.719Z,28.4
2019-02-07T05:29:22.263Z,29.3
2019-02-07T05:30:12.539Z,29.9
2019-02-07T05:31:01.785Z,30.4
2019-02-07T05:31:51.644Z,30.8
2019-02-07T05:32:43.408Z,31.2
2019-02-07T05:33:31.987Z,31.6
2019-02-07T05:34:24.432Z,31.9
2019-02-07T05:35:12.386Z,32.3
2019-02-07T05:36:02.201Z,32.5
2019-02-07T05:36:51.956Z,32.8
2019-02-07T05:37:43.474Z,33
2019-02-07T05:38:32.914Z,32.6
2019-02-07T05:39:21.614Z,32.1
2019-02-07T05:40:12.246Z,32.1
2019-02-07T05:41:02.746Z,31.8
2019-02-07T05:41:53.102Z,31.4
2019-02-07T05:42:42.051Z,30.9
2019-02-07T05:43:34.946Z,30.3
2019-02-07T05:44:22.799Z,29.9
2019-02-07T05:45:12.791Z,29.5
2019-02-07T05:46:02.824Z,29.3
2019-02-07T05:47:01.926Z,29.1
2019-02-07T05:47:42.737Z,28.9
2019-02-07T05:48:33.417Z,28.6
2019-02-07T05:49:23.029Z,28.3
2019-02-07T05:50:13.635Z,28.1
2019-02-07T05:51:03.767Z,27.9
2019-02-07T05:52:45.511Z,27.7
2019-02-07T05:53:33.068Z,27.6
2019-02-07T05:54:23.663Z,27.6
2019-02-07T05:55:13.540Z,27.3
2019-02-07T05:56:02.929Z,27.6
2019-02-07T05:56:52.881Z,28.6
2019-02-07T05:57:43.968Z,29.3
2019-02-07T05:58:34.560Z,29.8
2019-02-07T05:59:23.432Z,30.2
2019-02-07T06:00:13.883Z,30.6
2019-02-07T06:01:03.855Z,30.9
2019-02-07T06:01:56.769Z,31.3
2019-02-07T06:02:44.551Z,31.6
2019-02-07T06:03:33.265Z,31.8
2019-02-07T06:06:21.402Z,30.9
2019-02-07T06:07:11.451Z,30.6
2019-02-07T06:08:02.384Z,30.3
2019-02-07T06:08:54.067Z,30.1
2019-02-07T06:09:42.802Z,29.9
2019-02-07T06:10:31.735Z,29.8
2019-02-07T06:11:22.594Z,29.6
2019-02-07T06:12:14.414Z,29.5
2019-02-07T06:13:02.392Z,29.4
2019-02-07T06:13:52.501Z,29.3
2019-02-07T06:14:43.002Z,28.7
2019-02-07T06:15:32.582Z,28.3
2019-02-07T06:16:21.763Z,27.9
2019-02-07T06:17:12.377Z,27.7
2019-02-07T06:18:03.704Z,27.6
2019-02-07T06:19:09.822Z,27.2
2019-02-07T06:19:43.368Z,27.8
2019-02-07T06:20:32.934Z,28.3
2019-02-07T06:21:25.938Z,28.9
2019-02-07T06:22:13.036Z,29.5
2019-02-07T06:23:02.521Z,29.9
2019-02-07T06:23:52.983Z,30.3
2019-02-07T06:24:43.033Z,30.6
2019-02-07T06:25:33.126Z,30.9
2019-02-07T06:26:23.665Z,31.3
2019-02-07T06:27:14.691Z,31.5
2019-02-07T06:28:04.051Z,31.8
2019-02-07T06:28:52.411Z,31.2
2019-02-07T06:29:44.420Z,31
2019-02-07T06:30:35.293Z,30.9
2019-02-07T06:31:23.145Z,30.6
2019-02-07T06:32:13.973Z,30.3
2019-02-07T06:33:03.772Z,30.1
2019-02-07T06:33:54.750Z,29.9
2019-02-07T06:34:44.284Z,29.8
2019-02-07T06:35:33.983Z,29.6
2019-02-07T06:36:25.703Z,29.6
2019-02-07T06:37:14.365Z,29.4
2019-02-07T06:38:04.445Z,29.2
2019-02-07T06:38:54.475Z,28.6
2019-02-07T06:39:46.406Z,28.2
2019-02-07T06:40:33.336Z,27.9
2019-02-07T06:41:24.698Z,27.7
2019-02-07T06:42:14.825Z,27.3
2019-02-07T06:43:04.538Z,27.1
2019-02-07T06:43:53.772Z,27.9
2019-02-07T06:44:44.682Z,28.6
2019-02-07T06:45:36.583Z,29.2
2019-02-07T06:46:25.042Z,29.8
2019-02-07T06:47:20.334Z,30.1
2019-02-07T06:48:04.494Z,30.4
2019-02-07T06:48:55.934Z,30.6
2019-02-07T06:49:45.030Z,30.8
2019-02-07T06:50:35.137Z,31
2019-02-07T06:51:24.667Z,31.2
2019-02-07T06:52:15.145Z,30.4
2019-02-07T06:53:05.793Z,30.2
2019-02-07T06:53:55.041Z,29.9
2019-02-07T06:54:46.644Z,29.9
2019-02-07T06:55:36.041Z,29.9
2019-02-07T06:56:25.969Z,29.9
2019-02-07T06:57:18.384Z,29.8
2019-02-07T06:58:08.326Z,29.8
2019-02-07T06:58:57.893Z,29.7
2019-02-07T07:01:13.823Z,29.6
2019-02-07T07:01:24.257Z,29.3
2019-02-07T07:02:14.657Z,29.1
2019-02-07T07:03:04.512Z,28.4
2019-02-07T07:04:00.143Z,28.1
2019-02-07T07:06:21.847Z,27.5
2019-02-07T07:07:12.029Z,27.1
2019-02-07T07:08:01.685Z,28.1
2019-02-07T07:08:52.054Z,28.8
2019-02-07T07:09:42.309Z,29.6
2019-02-07T07:10:31.567Z,30.1
2019-02-07T07:11:22.519Z,30.4
2019-02-07T07:12:12.364Z,30.8
2019-02-07T07:13:04.805Z,31
2019-02-07T07:13:52.387Z,31.3
2019-02-07T07:14:42.512Z,31.5
2019-02-07T07:15:32.305Z,31.8
2019-02-07T07:16:23.737Z,31.6
2019-02-07T07:17:11.764Z,30.9
2019-02-07T07:18:02.412Z,30.8
2019-02-07T07:18:52.569Z,30.7
2019-02-07T07:19:43.073Z,30.6
2019-02-07T07:20:32.454Z,30.4
2019-02-07T07:21:22.079Z,30.4
2019-02-07T07:22:14.326Z,30.3
2019-02-07T07:23:03.324Z,30.2
2019-02-07T07:23:53.094Z,30.1
2019-02-07T07:24:42.844Z,30
2019-02-07T07:25:35.951Z,29.9
2019-02-07T07:26:22.982Z,29.1
2019-02-07T07:27:12.481Z,28.6
2019-02-07T07:28:03.098Z,28.3
2019-02-07T07:28:53.733Z,28
2019-02-07T07:29:43.737Z,27.8
2019-02-07T07:30:33.805Z,27.6
2019-02-07T07:31:24.683Z,27.4
2019-02-07T07:32:16.197Z,27.3
2019-02-07T07:33:03.344Z,28.3
2019-02-07T07:33:52.843Z,29.1
2019-02-07T07:34:43.624Z,29.8
2019-02-07T07:35:33.227Z,30.2
2019-02-07T07:36:23.711Z,30.5
2019-02-07T07:37:13.312Z,30.8
2019-02-07T07:38:04.140Z,31.1
2019-02-07T07:38:53.635Z,31.3
2019-02-07T07:39:43.420Z,31.5
2019-02-07T07:40:34.038Z,31.8
2019-02-07T07:41:24.377Z,31.9
2019-02-07T07:42:14.439Z,31.1
2019-02-07T07:43:03.112Z,31
2019-02-07T07:43:55.935Z,30.9
2019-02-07T07:44:43.225Z,30.8
2019-02-07T07:45:34.662Z,30.6
2019-02-07T07:46:23.872Z,30.6
2019-02-07T07:47:13.424Z,30.4
2019-02-07T07:48:03.647Z,30.3
2019-02-07T07:48:54.505Z,30.3
2019-02-07T07:49:46.396Z,30.2
2019-02-07T07:50:34.257Z,30.1
2019-02-07T07:51:25.283Z,30
2019-02-07T07:52:14.522Z,29.3
2019-02-07T07:53:06.640Z,28.8
2019-02-07T07:53:54.774Z,28.3
2019-02-07T07:54:44.074Z,28.1
2019-02-07T07:56:24.131Z,27.7
2019-02-07T07:57:14.479Z,27.2
2019-02-07T07:58:04.539Z,28
2019-02-07T07:58:56.353Z,28.9
2019-02-07T07:59:44.363Z,29.6
2019-02-07T08:00:34.994Z,30.1
2019-02-07T08:01:25.113Z,30.4
2019-02-07T08:02:16.497Z,30.8
2019-02-07T08:03:05.349Z,31.1
2019-02-07T08:03:55.644Z,31.3
2019-02-07T08:04:45.558Z,30.7
2019-02-07T08:05:35.538Z,29.7
2019-02-07T08:06:24.883Z,28.3
2019-02-07T08:07:14.748Z,27.4
2019-02-07T08:08:07.806Z,26.1
2019-02-07T08:08:55.661Z,24.6
2019-02-07T08:09:46.647Z,24.6
2019-02-07T08:10:36.433Z,24.7
2019-02-07T08:11:27.848Z,25.9
2019-02-07T08:12:15.091Z,27.1
2019-02-07T08:13:05.863Z,28
2019-02-07T08:13:55.798Z,29
2019-02-07T08:14:45.873Z,29.7
2019-02-07T08:15:35.655Z,30.2
2019-02-07T08:16:27.507Z,30.6
2019-02-07T08:17:19.009Z,31
2019-02-07T08:18:07.246Z,31.3
2019-02-07T08:18:55.926Z,31.6
2019-02-07T08:19:46.726Z,31.9
2019-02-07T08:20:40.756Z,31.8
2019-02-07T08:21:27.208Z,31.1
2019-02-07T08:22:16.635Z,31.1
2019-02-07T08:23:06.964Z,31.1
2019-02-07T08:23:57.364Z,31
2019-02-07T08:24:45.972Z,30.9
2019-02-07T08:25:37.227Z,30.8
2019-02-07T08:26:29.051Z,30.7
2019-02-07T08:27:16.641Z,30.6
2019-02-07T08:28:07.819Z,30.5
2019-02-07T08:28:56.281Z,30.4
2019-02-07T08:29:49.901Z,30.4
2019-02-07T08:30:44.078Z,29.7
2019-02-07T08:31:27.033Z,28.9
2019-02-07T08:32:16.828Z,28.6
2019-02-07T08:33:07.940Z,28.3
2019-02-07T08:33:58.035Z,28
2019-02-07T08:34:46.517Z,27.9
2019-02-07T08:35:39.603Z,27.4
2019-02-07T08:36:27.101Z,28.3
2019-02-07T08:37:18.380Z,29.1
2019-02-07T08:38:08.086Z,29.7
2019-02-07T08:38:58.488Z,30.1
2019-02-07T08:39:47.628Z,30.5
2019-02-07T08:40:38.575Z,30.8
2019-02-07T08:41:28.578Z,31.1
2019-02-07T08:42:17.518Z,31.4
2019-02-07T08:43:08.400Z,31.6
2019-02-07T08:43:58.490Z,31.9
2019-02-07T08:44:50.330Z,32.1
2019-02-07T08:45:38.635Z,31.3
2019-02-07T08:46:28.340Z,31.1
2019-02-07T08:47:18.262Z,31
2019-02-07T08:48:14.253Z,30.9
2019-02-07T08:49:02.142Z,30.8
2019-02-07T08:49:49.247Z,30.7
2019-02-07T08:50:38.777Z,30.6
2019-02-07T08:51:27.879Z,30.5
2019-02-07T08:52:19.170Z,30.4
2019-02-07T08:53:08.450Z,30.4
2019-02-07T08:54:00.452Z,30.3
2019-02-07T08:54:48.949Z,30.3
2019-02-07T08:55:42.175Z,29.6
2019-02-07T08:56:28.623Z,28.8
2019-02-07T08:57:21.809Z,28.4
2019-02-07T08:58:09.166Z,28.1
2019-02-07T08:58:59.259Z,27.9
2019-02-07T08:59:49.479Z,27.8
2019-02-07T09:00:39.384Z,27.3
2019-02-07T09:02:19.224Z,28.8
2019-02-07T09:03:11.749Z,29.6
2019-02-07T09:03:59.403Z,30.2
2019-02-07T09:04:49.421Z,30.6
2019-02-07T09:05:39.430Z,30.9
2019-02-07T09:06:31.053Z,31.2
2019-02-07T09:07:19.871Z,31.4
2019-02-07T09:08:10.077Z,31.7
2019-02-07T09:09:00.373Z,31.9
2019-02-07T09:09:50.773Z,32
2019-02-07T09:10:39.485Z,31.2
2019-02-07T09:11:31.216Z,31.1
2019-02-07T09:12:22.108Z,31
2019-02-07T09:13:10.487Z,30.8
2019-02-07T09:14:01.894Z,30.8
2019-02-07T09:14:50.533Z,30.6
2019-02-07T09:15:44.566Z,30.6
2019-02-07T09:16:30.720Z,30.5
2019-02-07T09:17:22.405Z,30.4
2019-02-07T09:18:20.671Z,30.4
2019-02-07T09:19:01.090Z,30.3
2019-02-07T09:19:50.610Z,30.2
2019-02-07T09:20:41.050Z,29.5
2019-02-07T09:21:32.897Z,28.8
2019-02-07T09:22:24.874Z,28.4
2019-02-07T09:23:11.963Z,28.1
2019-02-07T09:24:00.897Z,27.9
2019-02-07T09:24:54.010Z,27.8
2019-02-07T09:25:41.843Z,27.3
2019-02-07T09:26:31.377Z,27.9
2019-02-07T09:27:21.270Z,28.9
2019-02-07T09:28:10.736Z,29.8
2019-02-07T09:29:01.815Z,30.3
2019-02-07T09:29:51.344Z,30.6
2019-02-07T09:30:43.225Z,30.9
2019-02-07T09:31:31.577Z,31.3
2019-02-07T09:32:21.825Z,31.5
2019-02-07T09:33:12.072Z,31.8
2019-02-07T09:34:04.210Z,32.1
2019-02-07T09:34:52.308Z,32.1
2019-02-07T09:35:42.102Z,31.3
2019-02-07T09:36:32.106Z,31.2
2019-02-07T09:37:22.671Z,31.1
2019-02-07T09:38:12.304Z,31
2019-02-07T09:39:02.534Z,30.9
2019-02-07T09:39:53.604Z,30.8
2019-02-07T09:40:41.871Z,30.6
2019-02-07T09:41:32.156Z,30.6
2019-02-07T09:42:21.909Z,30.4
2019-02-07T09:43:15.422Z,30.4
2019-02-07T09:44:03.172Z,30.3
2019-02-07T09:44:52.833Z,30.3
2019-02-07T09:45:43.006Z,29.4
2019-02-07T09:46:32.513Z,28.8
2019-02-07T09:47:22.843Z,28.4
2019-02-07T09:48:23.720Z,28.1
2019-02-07T09:49:05.066Z,27.8
2019-02-07T09:49:53.351Z,27.5
2019-02-07T09:50:43.043Z,28.4
2019-02-07T09:51:32.995Z,29.2
2019-02-07T09:52:25.023Z,29.9
2019-02-07T09:53:25.330Z,30.3
2019-02-07T09:54:03.999Z,30.7
2019-02-07T09:54:53.706Z,30.9
2019-02-07T09:55:44.070Z,31.2
2019-02-07T09:56:33.775Z,31.4
2019-02-07T09:57:24.129Z,31.7
2019-02-07T09:58:16.591Z,31.9
2019-02-07T09:59:06.658Z,32.2
2019-02-07T09:59:53.465Z,31.8
2019-02-07T10:00:44.318Z,31.3
2019-02-07T10:01:34.857Z,31.2
2019-02-07T10:02:23.923Z,31.1
2019-02-07T10:03:13.723Z,31
2019-02-07T10:04:05.115Z,30.9
2019-02-07T10:04:54.112Z,30.8
2019-02-07T10:07:24.372Z,30.6
2019-02-07T10:08:11.504Z,30.5
2019-02-07T10:09:01.627Z,30.3
2019-02-07T10:09:51.712Z,29.4
2019-02-07T10:10:42.204Z,28.8
2019-02-07T10:11:32.217Z,28.4
2019-02-07T10:12:21.502Z,28.2
2019-02-07T10:13:13.212Z,28
2019-02-07T10:14:02.219Z,27.6
2019-02-07T10:14:51.759Z,27.8
2019-02-07T10:15:42.699Z,28.8
2019-02-07T10:16:35.959Z,29.6
2019-02-07T10:17:21.054Z,30.1
2019-02-07T10:18:12.368Z,30.4
2019-02-07T10:19:02.291Z,30.8
2019-02-07T10:19:52.879Z,31
2019-02-07T10:20:45.166Z,31.1
2019-02-07T10:21:31.646Z,30.8
2019-02-07T10:22:24.209Z,30.4
2019-02-07T10:23:11.755Z,29.8
2019-02-07T10:24:03.147Z,29.2
2019-02-07T10:24:52.973Z,28.7
2019-02-07T10:25:46.031Z,28.3
2019-02-07T10:26:33.024Z,28.1
2019-02-07T10:27:23.141Z,27.9
2019-02-07T10:28:13.231Z,27.7
2019-02-07T10:29:02.601Z,27.6
2019-02-07T10:29:52.441Z,27.5
2019-02-07T10:30:42.388Z,27.4
2019-02-07T10:31:35.233Z,27.4
2019-02-07T10:32:23.288Z,27.4
2019-02-07T10:33:13.083Z,27.3
2019-02-07T10:34:04.229Z,27.3
2019-02-07T10:34:56.057Z,27.3
2019-02-07T10:35:43.713Z,27.3
2019-02-07T10:36:34.010Z,27.2
2019-02-07T10:37:24.435Z,27.2
2019-02-07T10:38:13.095Z,27.1
2019-02-07T10:39:04.213Z,27.1
2019-02-07T10:39:54.570Z,27.1
2019-02-07T10:40:45.228Z,27
2019-02-07T10:41:37.062Z,27
2019-02-07T10:42:23.960Z,26.9
2019-02-07T10:43:14.218Z,26.9
2019-02-07T10:44:06.207Z,26.8
2019-02-07T10:44:53.855Z,26.8
2019-02-07T10:45:44.797Z,26.7
2019-02-07T10:46:34.775Z,26.6
2019-02-07T10:47:24.062Z,26.6
2019-02-07T10:48:15.206Z,26.6
2019-02-07T10:49:04.747Z,26.5
2019-02-07T10:50:06.898Z,26.4
2019-02-07T10:50:44.913Z,26.4
2019-02-07T10:51:34.905Z,26.3
2019-02-07T10:52:23.622Z,26.3
2019-02-07T10:53:17.332Z,26.3
2019-02-07T10:54:05.041Z,26.1
2019-02-07T10:54:55.361Z,26.1
2019-02-07T10:55:44.139Z,26.1
2019-02-07T10:56:34.939Z,26
2019-02-07T10:57:25.136Z,25.9
2019-02-07T10:58:15.599Z,25.9
2019-02-07T10:59:07.194Z,25.8
2019-02-07T10:59:55.724Z,25.8
2019-02-07T11:00:45.491Z,25.7
2019-02-07T11:01:36.126Z,25.6
2019-02-07T11:02:27.369Z,25.6
2019-02-07T11:03:15.113Z,25.6
2019-02-07T11:04:06.374Z,25.5
2019-02-07T11:04:55.794Z,25.4
2019-02-07T11:05:45.616Z,25.4
2019-02-07T11:06:35.658Z,25.3
2019-02-07T11:07:26.066Z,25.3
2019-02-07T11:08:17.199Z,25.2
2019-02-07T11:09:05.909Z,25.2
2019-02-07T11:09:56.148Z,25.1
2019-02-07T11:10:45.272Z,25.1
2019-02-07T11:11:38.317Z,25.1
2019-02-07T11:12:25.776Z,24.9
2019-02-07T11:13:16.665Z,24.9
2019-02-07T11:14:05.914Z,24.9
2019-02-07T11:14:56.013Z,24.8
2019-02-07T11:15:45.928Z,24.8
2019-02-07T11:16:36.375Z,24.8
2019-02-07T11:17:28.543Z,24.7
2019-02-07T11:18:16.742Z,24.6
2019-02-07T11:19:07.116Z,24.6
2019-02-07T11:19:56.390Z,24.6
2019-02-07T11:20:48.122Z,24.5
2019-02-07T11:21:36.742Z,24.4
2019-02-07T11:22:30.212Z,24.4
2019-02-07T11:23:16.351Z,24.3
2019-02-07T11:24:05.986Z,24.3